Alnika — YP3337 — position and weather

sailwx.info

Track history (hours):
 
Tides and Currents Weather Stations Pressure Air Temp Water Temp Dewpoint Dewpoint Depression Visibility Wind Speed Wind Dir Waves Ship Positions

Alnika

Last reported at 2017-Nov-17 16:13 UTC. Time now 2017-Nov-22 03:45 UTC.
Position N 44°42' E 019°59'.

Length 105 m; draft 0.2 m.

Type: Tanker. MMSI: 264163337.

Date/timePositionNaut miles runAvg speedWind from/ knotsBaromVisibWave heightAir tempDewpointWater temp
2017-Nov-17 16:13N 44°42' E 019°59'1 4.8
2017-Nov-17 16:00N 44°41' E 019°60'3 6.1
2017-Nov-17 15:30N 44°39' E 019°56'2 3.6
2017-Nov-17 14:57N 44°38' E 019°58'3 6.3
2017-Nov-17 14:30N 44°40' E 020°01'4 6.1
2017-Nov-17 13:52N 44°42' E 020°06'2 6.1
2017-Nov-17 13:30N 44°43' E 020°09'3 5.6
2017-Nov-17 13:00N 44°40' E 020°10'3 6.0
2017-Nov-17 12:30N 44°43' E 020°13'2 3.8
2017-Nov-17 12:00N 44°41' E 020°14'3 5.5
2017-Nov-17 11:30N 44°40' E 020°18'3 6.6
2017-Nov-17 11:00N 44°44' E 020°18'3 6.7
2017-Nov-17 10:30N 44°46' E 020°21'3 6.4
2017-Nov-17 10:00N 44°48' E 020°25'3 5.3
2017-Nov-17 09:30N 44°50' E 020°28'1 1.7
2017-Nov-17 09:00N 44°50' E 020°29'0 0.0
2017-Nov-17 08:30N 44°50' E 020°29'0 0.5
2017-Nov-17 08:01N 44°50' E 020°28'0 0.2
2017-Nov-17 07:31N 44°50' E 020°28'1 1.1
2017-Nov-17 07:01N 44°50' E 020°29'0 0.0
2017-Nov-17 06:31N 44°50' E 020°29'1 1.6
2017-Nov-17 06:01N 44°50' E 020°30'20 1.4
2017-Nov-16 15:45N 44°40' E 020°55'0 0.4
2017-Nov-16 15:30N 44°40' E 020°55'0 0.0
2017-Nov-16 15:00N 44°40' E 020°55'0 0.0
2017-Nov-16 14:30N 44°40' E 020°55'1 1.0
2017-Nov-16 14:00N 44°40' E 020°56'2 3.3
2017-Nov-16 13:31N 44°41' E 020°57'0 0.0
2017-Nov-16 13:00N 44°42' E 020°57'0 0.0
2017-Nov-16 12:30N 44°41' E 020°57'0 0.0
2017-Nov-16 12:00N 44°42' E 020°57'0 0.0
2017-Nov-16 11:30N 44°42' E 020°57'0 0.0
2017-Nov-16 11:00N 44°41' E 020°57'0 0.0
2017-Nov-16 10:31N 44°42' E 020°57'0 0.0
2017-Nov-16 10:00N 44°42' E 020°57'0 0.0
2017-Nov-16 09:30N 44°42' E 020°57'0 0.0
2017-Nov-16 09:00N 44°41' E 020°57'0 0.0
2017-Nov-16 08:30N 44°41' E 020°57'0 0.0
2017-Nov-16 08:00N 44°41' E 020°57'0 0.0
2017-Nov-16 07:30N 44°42' E 020°57'0 0.0
2017-Nov-16 07:00N 44°42' E 020°57'0 0.0
2017-Nov-16 06:30N 44°42' E 020°57'0 0.0
2017-Nov-16 06:00N 44°41' E 020°57'0 0.0
2017-Nov-16 05:30N 44°41' E 020°57'0 0.0
2017-Nov-16 05:00N 44°42' E 020°57'0 0.0
2017-Nov-16 04:31N 44°41' E 020°57'0 0.0
2017-Nov-16 04:00N 44°42' E 020°57'0 0.0
2017-Nov-16 03:30N 44°41' E 020°57'0 0.0
2017-Nov-16 03:00N 44°41' E 020°57'0 0.0
2017-Nov-16 02:30N 44°42' E 020°57'0 0.0
2017-Nov-16 02:00N 44°42' E 020°57'0 0.0
2017-Nov-16 01:30N 44°42' E 020°57'0 0.0
2017-Nov-16 01:00N 44°42' E 020°57'0 0.0
2017-Nov-16 00:30N 44°41' E 020°57'0 0.0
2017-Nov-16 00:00N 44°42' E 020°57'0 0.0
2017-Nov-15 23:30N 44°41' E 020°57'0 0.0
2017-Nov-15 23:00N 44°42' E 020°57'0 0.0
2017-Nov-15 22:30N 44°42' E 020°57'0 0.0
2017-Nov-15 22:00N 44°42' E 020°57'0 0.0
2017-Nov-15 21:30N 44°41' E 020°57'0 0.0
2017-Nov-15 21:01N 44°41' E 020°57'0 0.0
2017-Nov-15 20:31N 44°41' E 020°57'0 0.0
2017-Nov-15 20:01N 44°41' E 020°57'0 0.0
2017-Nov-15 19:31N 44°41' E 020°57'0 0.0
2017-Nov-15 19:00N 44°41' E 020°57'0 0.0
2017-Nov-15 18:31N 44°41' E 020°57'0 0.0
2017-Nov-15 18:00N 44°41' E 020°57'0 0.0
2017-Nov-15 17:30N 44°42' E 020°57'0 0.0
2017-Nov-15 17:01N 44°41' E 020°57'0 0.0
2017-Nov-15 16:31N 44°42' E 020°57'0 0.0
2017-Nov-15 16:01N 44°42' E 020°57'0 0.0
2017-Nov-15 15:31N 44°42' E 020°57'0 0.0
2017-Nov-15 15:01N 44°41' E 020°57'0 0.0
2017-Nov-15 14:31N 44°41' E 020°57'0 0.0
2017-Nov-15 14:01N 44°41' E 020°57'0 0.0
2017-Nov-15 13:31N 44°41' E 020°57'0 0.0
2017-Nov-15 13:01N 44°42' E 020°57'0 0.0
2017-Nov-15 12:30N 44°41' E 020°57'0 0.0
2017-Nov-15 12:01N 44°42' E 020°57'0 0.0
2017-Nov-15 11:30N 44°41' E 020°57'0 0.0
2017-Nov-15 11:00N 44°41' E 020°57'0 0.1
2017-Nov-15 10:30N 44°42' E 020°57'0 0.0
2017-Nov-15 10:00N 44°42' E 020°57'0 0.0
2017-Nov-15 09:30N 44°42' E 020°57'0 0.0
2017-Nov-15 09:00N 44°42' E 020°57'0 0.0
2017-Nov-15 08:30N 44°42' E 020°57'0 0.0
2017-Nov-15 08:00N 44°42' E 020°57'0 0.0
2017-Nov-15 07:30N 44°42' E 020°57'0 0.0
2017-Nov-15 07:00N 44°42' E 020°57'0 0.0
2017-Nov-15 06:30N 44°42' E 020°57'0 0.0
2017-Nov-15 06:00N 44°42' E 020°57'0 0.0
2017-Nov-15 05:30N 44°42' E 020°57'0 0.0
2017-Nov-15 05:00N 44°42' E 020°57'0 0.0
2017-Nov-15 04:30N 44°42' E 020°57'0 0.0
2017-Nov-15 04:00N 44°42' E 020°57'0 0.0
2017-Nov-15 03:30N 44°42' E 020°57'0 0.0
2017-Nov-15 03:00N 44°42' E 020°57'0 0.0
2017-Nov-15 02:30N 44°42' E 020°57'0 0.0
2017-Nov-15 02:00N 44°42' E 020°57'0 0.0
2017-Nov-15 01:30N 44°42' E 020°57'0 0.0
2017-Nov-15 01:00N 44°42' E 020°57'0 0.0
2017-Nov-15 00:30N 44°42' E 020°57'0 0.0
2017-Nov-15 00:01N 44°42' E 020°57'0 0.0
2017-Nov-14 23:31N 44°42' E 020°57'0 0.0
2017-Nov-14 23:01N 44°42' E 020°57'0 0.0
2017-Nov-14 22:31N 44°42' E 020°57'0 0.0
2017-Nov-14 22:00N 44°42' E 020°57'0 0.0
2017-Nov-14 21:31N 44°42' E 020°57'0 0.0
2017-Nov-14 21:00N 44°42' E 020°57'0 0.0
2017-Nov-14 20:31N 44°42' E 020°57'0 0.0
2017-Nov-14 20:00N 44°42' E 020°57'0 0.0
2017-Nov-14 19:30N 44°42' E 020°57'0 0.0
2017-Nov-14 19:00N 44°42' E 020°57'0 0.0
2017-Nov-14 18:30N 44°42' E 020°57'0 0.0
2017-Nov-14 18:00N 44°42' E 020°57'0 0.0
2017-Nov-14 17:30N 44°42' E 020°57'0 0.0
2017-Nov-14 17:00N 44°42' E 020°57'0 0.0
2017-Nov-14 16:30N 44°42' E 020°57'0 0.0
2017-Nov-14 16:00N 44°42' E 020°57'0 0.0
2017-Nov-14 15:30N 44°42' E 020°57'0 0.0
2017-Nov-14 15:00N 44°42' E 020°57'0 0.0
2017-Nov-14 14:30N 44°42' E 020°57'0 0.0
2017-Nov-14 14:00N 44°42' E 020°57'0 0.0
2017-Nov-14 13:30N 44°42' E 020°57'0 0.0
2017-Nov-14 13:00N 44°42' E 020°57'0 0.0
2017-Nov-14 12:30N 44°42' E 020°57'0 0.0
2017-Nov-14 12:01N 44°42' E 020°57'0 0.0
2017-Nov-14 11:31N 44°42' E 020°57'0 0.0
2017-Nov-14 11:01N 44°42' E 020°57'0 0.0
2017-Nov-14 10:31N 44°42' E 020°57'0 0.0
2017-Nov-14 10:01N 44°42' E 020°57'0 0.0
2017-Nov-14 09:30N 44°42' E 020°57'0 0.0
2017-Nov-14 09:00N 44°42' E 020°57'0 0.0
2017-Nov-14 08:30N 44°42' E 020°57'0 0.0
2017-Nov-14 08:00N 44°42' E 020°57'0 0.0
2017-Nov-14 07:30N 44°42' E 020°57'0 0.0
2017-Nov-14 07:00N 44°42' E 020°57'0 0.0
2017-Nov-14 06:30N 44°42' E 020°57'0 0.0
2017-Nov-14 06:00N 44°42' E 020°57'0 0.0
2017-Nov-14 05:30N 44°42' E 020°57'0 0.0
2017-Nov-14 05:00N 44°42' E 020°57'0 0.0
2017-Nov-14 04:30N 44°42' E 020°57'0 0.0
2017-Nov-14 04:00N 44°42' E 020°57'0 0.0
2017-Nov-14 03:30N 44°42' E 020°57'0 0.0
2017-Nov-14 03:00N 44°42' E 020°57'0 0.0
2017-Nov-14 02:30N 44°42' E 020°57'0 0.0
2017-Nov-14 02:00N 44°42' E 020°57'0 0.0
2017-Nov-14 01:30N 44°42' E 020°57'0 0.0
2017-Nov-14 01:00N 44°42' E 020°57'0 0.0
2017-Nov-14 00:31N 44°42' E 020°57'0 0.0
2017-Nov-14 00:00N 44°42' E 020°57'0 0.0
2017-Nov-13 23:30N 44°42' E 020°57'0 0.0
2017-Nov-13 23:00N 44°42' E 020°57'0 0.0
2017-Nov-13 22:30N 44°42' E 020°57'0 0.0
2017-Nov-13 22:00N 44°42' E 020°57'21 1.0
2017-Nov-13 00:41N 44°46' E 021°26'1 6.8
2017-Nov-13 00:30N 44°47' E 021°28'2 4.6
2017-Nov-13 00:00N 44°46' E 021°31'0 0.0
2017-Nov-12 23:31N 44°46' E 021°31'0 0.0
2017-Nov-12 23:00N 44°46' E 021°31'0 0.0
2017-Nov-12 22:30N 44°46' E 021°31'0 0.0
2017-Nov-12 22:00N 44°46' E 021°31'0 0.0
2017-Nov-12 21:31N 44°46' E 021°31'0 0.0
2017-Nov-12 21:00N 44°46' E 021°31'0 0.0
2017-Nov-12 20:30N 44°46' E 021°31'1 2.0
2017-Nov-12 20:01N 44°46' E 021°32'3 6.6
2017-Nov-12 19:30N 44°44' E 021°36'3 6.9
2017-Nov-12 19:00N 44°41' E 021°39'16 6.3
2017-Nov-12 16:27N 44°36' E 022°01'3 7.0
2017-Nov-12 16:01N 44°33' E 022°02'3 7.0
2017-Nov-12 15:30N 44°30' E 022°05'4 7.0
2017-Nov-12 15:00N 44°28' E 022°09'3 6.4
2017-Nov-12 14:30N 44°31' E 022°12'10 7.0
2017-Nov-12 13:05N 44°39' E 022°18'1 6.7
2017-Nov-12 13:00N 44°40' E 022°19'4 7.1
2017-Nov-12 12:28N 44°41' E 022°24'3 6.8
2017-Nov-12 12:01N 44°43' E 022°27'4 7.2
2017-Nov-12 11:30N 44°40' E 022°31'0 0.5
2017-Nov-12 11:01N 44°40' E 022°31'0 0.3
2017-Nov-12 10:31N 44°40' E 022°32'0 0.0
2017-Nov-12 09:55N 44°40' E 022°32'2 4.8
2017-Nov-12 09:31N 44°39' E 022°34'3 6.9
2017-Nov-12 09:00N 44°37' E 022°38'1 2.1
2017-Nov-12 08:30N 44°37' E 022°39'0 0.0
2017-Nov-12 08:00N 44°37' E 022°39'0 0.0
2017-Nov-12 07:30N 44°37' E 022°39'0 0.0
2017-Nov-12 07:01N 44°37' E 022°39'0 0.0
2017-Nov-12 06:30N 44°37' E 022°39'0 0.0
2017-Nov-12 06:00N 44°37' E 022°39'2 3.4
2017-Nov-12 05:30N 44°37' E 022°42'3 6.9
2017-Nov-12 05:00N 44°34' E 022°45'3 5.3
2017-Nov-12 04:30N 44°32' E 022°44'3 6.1
2017-Nov-12 04:00N 44°32' E 022°40'3 6.6
2017-Nov-12 03:31N 44°33' E 022°35'3 6.4
2017-Nov-12 03:00N 44°30' E 022°33'3 5.9
2017-Nov-12 02:30N 44°29' E 022°30'2 4.4
2017-Nov-12 02:00N 44°27' E 022°28'3 6.4
2017-Nov-12 01:30N 44°24' E 022°30'3 6.7
2017-Nov-12 01:00N 44°21' E 022°31'3 6.7
2017-Nov-12 00:30N 44°18' E 022°34'0 0.3
2017-Nov-12 00:00N 44°18' E 022°34'2 4.1
2017-Nov-11 23:30N 44°18' E 022°37'3 5.6
2017-Nov-11 23:00N 44°17' E 022°41'3 5.2
2017-Nov-11 22:30N 44°14' E 022°41'2 4.5
2017-Nov-11 22:00N 44°12' E 022°42'3 5.5
2017-Nov-11 21:30N 44°11' E 022°46'3 5.8
2017-Nov-11 21:00N 44°09' E 022°49'3 5.6
2017-Nov-11 20:30N 44°08' E 022°52'3 5.5
2017-Nov-11 20:00N 44°06' E 022°55'3 5.6
2017-Nov-11 19:30N 44°06' E 022°59'3 5.7
2017-Nov-11 19:00N 44°05' E 023°02'2 5.0
2017-Nov-11 18:30N 44°02' E 023°02'3 5.1
2017-Nov-11 18:00N 44°00' E 022°59'3 5.8
2017-Nov-11 17:30N 43°60' E 022°55'3 5.3
2017-Nov-11 17:01N 43°58' E 022°52'3 6.0
2017-Nov-11 16:30N 43°55' E 022°52'3 5.7
2017-Nov-11 16:00N 43°53' E 022°50'3 5.6
2017-Nov-11 15:30N 43°50' E 022°52'4 6.1
2017-Nov-11 14:55N 43°49' E 022°57'2 5.7
2017-Nov-11 14:30N 43°48' E 023°00'3 5.3
2017-Nov-11 14:00N 43°48' E 023°04'3 5.6
2017-Nov-11 13:30N 43°48' E 023°08'3 5.4
2017-Nov-11 13:00N 43°49' E 023°11'3 5.7
2017-Nov-11 12:28N 43°51' E 023°15'3 5.8
2017-Nov-11 12:00N 43°51' E 023°19'3 6.1
2017-Nov-11 11:29N 43°51' E 023°23'5 5.6
2017-Nov-11 10:40N 43°50' E 023°29'1 5.6
2017-Nov-11 10:29N 43°50' E 023°31'3 5.7
2017-Nov-11 09:57N 43°48' E 023°34'196 3.9
2017-Nov-09 07:33N 44°17' E 028°04'0 6.0
2017-Nov-09 07:30N 44°17' E 028°04'3 5.8
2017-Nov-09 07:00N 44°16' E 028°08'3 6.7
2017-Nov-09 06:30N 44°16' E 028°13'3 6.7
2017-Nov-09 06:00N 44°15' E 028°17'3 6.3
2017-Nov-09 05:30N 44°14' E 028°22'3 5.1
2017-Nov-09 04:59N 44°14' E 028°25'3 5.8
2017-Nov-09 04:29N 44°15' E 028°28'3 5.8
2017-Nov-09 04:00N 44°16' E 028°32'0 0.9
2017-Nov-09 03:30N 44°16' E 028°32'0 0.0
2017-Nov-09 03:00N 44°16' E 028°32'0 0.0
2017-Nov-09 02:30N 44°16' E 028°32'0 0.0
2017-Nov-09 02:00N 44°16' E 028°32'0 0.0
2017-Nov-09 01:30N 44°16' E 028°32'0 0.0
2017-Nov-09 01:00N 44°16' E 028°32'0 0.0
2017-Nov-09 00:30N 44°16' E 028°32'0 0.0
2017-Nov-09 00:00N 44°16' E 028°32'0 0.0
2017-Nov-08 23:30N 44°16' E 028°32'0 0.0
2017-Nov-08 23:00N 44°16' E 028°32'0 0.0
2017-Nov-08 22:30N 44°16' E 028°32'0 0.0
2017-Nov-08 22:00N 44°16' E 028°32'0 0.0
2017-Nov-08 21:30N 44°16' E 028°32'0 0.0
2017-Nov-08 21:00N 44°16' E 028°32'0 0.0
2017-Nov-08 20:30N 44°16' E 028°32'0 0.0
2017-Nov-08 20:00N 44°16' E 028°32'0 0.0
2017-Nov-08 19:30N 44°16' E 028°32'0 0.0
2017-Nov-08 19:00N 44°16' E 028°32'0 0.0
2017-Nov-08 18:30N 44°16' E 028°32'0 0.0
2017-Nov-08 18:00N 44°16' E 028°32'0 0.0
2017-Nov-08 17:30N 44°16' E 028°32'0 0.0
2017-Nov-08 17:00N 44°16' E 028°32'0 0.1
2017-Nov-08 16:30N 44°16' E 028°33'0 0.0
2017-Nov-08 16:00N 44°16' E 028°33'0 0.0
2017-Nov-08 15:30N 44°16' E 028°33'0 0.0
2017-Nov-08 15:00N 44°16' E 028°33'0 0.0
2017-Nov-08 14:30N 44°16' E 028°33'0 0.0
2017-Nov-08 14:00N 44°16' E 028°33'0 0.0
2017-Nov-08 13:30N 44°16' E 028°33'0 0.3
2017-Nov-08 13:00N 44°16' E 028°33'2 3.1
2017-Nov-08 12:30N 44°16' E 028°35'3 5.5
2017-Nov-08 12:00N 44°18' E 028°37'1 1.9
2017-Nov-08 11:30N 44°19' E 028°38'0 0.3
2017-Nov-08 11:00N 44°19' E 028°38'1 2.8
2017-Nov-08 10:30N 44°20' E 028°40'1 1.0
2017-Nov-08 10:00N 44°20' E 028°40'0 0.0
2017-Nov-08 09:30N 44°20' E 028°40'0 0.0
2017-Nov-08 09:00N 44°20' E 028°40'0 0.0
2017-Nov-08 08:30N 44°20' E 028°40'0 0.0
2017-Nov-08 08:00N 44°20' E 028°40'0 0.0
2017-Nov-08 07:30N 44°20' E 028°40'0 0.0
2017-Nov-08 07:00N 44°20' E 028°40'0 0.0
2017-Nov-08 06:30N 44°20' E 028°40'0 0.0
2017-Nov-08 06:00N 44°20' E 028°40'0 0.0
2017-Nov-08 05:30N 44°20' E 028°40'0 0.0
2017-Nov-08 05:00N 44°20' E 028°40'0 0.0
2017-Nov-08 04:30N 44°20' E 028°40'0 0.0
2017-Nov-08 04:00N 44°20' E 028°40'0 0.0
2017-Nov-08 03:30N 44°20' E 028°40'0 0.0
2017-Nov-08 03:00N 44°20' E 028°40'0 0.0
2017-Nov-08 02:30N 44°20' E 028°40'0 0.0
2017-Nov-08 02:00N 44°20' E 028°40'0 0.0
2017-Nov-08 01:30N 44°20' E 028°40'0 0.0
2017-Nov-08 01:00N 44°20' E 028°40'0 0.0
2017-Nov-08 00:30N 44°20' E 028°40'0 0.0
2017-Nov-08 00:00N 44°20' E 028°40'0 0.0
2017-Nov-07 23:30N 44°20' E 028°40'0 0.0
2017-Nov-07 23:00N 44°20' E 028°40'0 0.0
2017-Nov-07 22:30N 44°20' E 028°40'0 0.0
2017-Nov-07 22:00N 44°20' E 028°40'0 0.0
2017-Nov-07 21:30N 44°20' E 028°40'0 0.0
2017-Nov-07 21:00N 44°20' E 028°40'0 0.0
2017-Nov-07 20:30N 44°20' E 028°40'0 0.0
2017-Nov-07 20:00N 44°20' E 028°40'0 0.0
2017-Nov-07 19:30N 44°20' E 028°40'0 0.0
2017-Nov-07 19:00N 44°20' E 028°40'0 0.0
2017-Nov-07 18:30N 44°20' E 028°40'0 0.0
2017-Nov-07 18:00N 44°20' E 028°40'0 0.0
2017-Nov-07 17:30N 44°20' E 028°40'0 0.0
2017-Nov-07 17:00N 44°20' E 028°40'0 0.0
2017-Nov-07 16:30N 44°20' E 028°40'  
Track history (hours):
 
Tides and Currents Weather Stations Pressure Air Temp Water Temp Dewpoint Dewpoint Depression Visibility Wind Speed Wind Dir Waves Ship Positions

Alnika

Last reported at 2017-Nov-17 16:13 UTC. Time now 2017-Nov-22 03:45 UTC.
Position N 44°42' E 019°59'.

Length 105 m; draft 0.2 m.

Type: Tanker. MMSI: 264163337.

Date/timePositionNaut miles runAvg speedWind from/ knotsBaromVisibWave heightAir tempDewpointWater temp
2017-Nov-17 16:13N 44°42' E 019°59'1 4.8
2017-Nov-17 16:00N 44°41' E 019°60'3 6.1
2017-Nov-17 15:30N 44°39' E 019°56'2 3.6
2017-Nov-17 14:57N 44°38' E 019°58'3 6.3
2017-Nov-17 14:30N 44°40' E 020°01'4 6.1
2017-Nov-17 13:52N 44°42' E 020°06'2 6.1
2017-Nov-17 13:30N 44°43' E 020°09'3 5.6
2017-Nov-17 13:00N 44°40' E 020°10'3 6.0
2017-Nov-17 12:30N 44°43' E 020°13'2 3.8
2017-Nov-17 12:00N 44°41' E 020°14'3 5.5
2017-Nov-17 11:30N 44°40' E 020°18'3 6.6
2017-Nov-17 11:00N 44°44' E 020°18'3 6.7
2017-Nov-17 10:30N 44°46' E 020°21'3 6.4
2017-Nov-17 10:00N 44°48' E 020°25'3 5.3
2017-Nov-17 09:30N 44°50' E 020°28'1 1.7
2017-Nov-17 09:00N 44°50' E 020°29'0 0.0
2017-Nov-17 08:30N 44°50' E 020°29'0 0.5
2017-Nov-17 08:01N 44°50' E 020°28'0 0.2
2017-Nov-17 07:31N 44°50' E 020°28'1 1.1
2017-Nov-17 07:01N 44°50' E 020°29'0 0.0
2017-Nov-17 06:31N 44°50' E 020°29'1 1.6
2017-Nov-17 06:01N 44°50' E 020°30'20 1.4
2017-Nov-16 15:45N 44°40' E 020°55'0 0.4
2017-Nov-16 15:30N 44°40' E 020°55'0 0.0
2017-Nov-16 15:00N 44°40' E 020°55'0 0.0
2017-Nov-16 14:30N 44°40' E 020°55'1 1.0
2017-Nov-16 14:00N 44°40' E 020°56'2 3.3
2017-Nov-16 13:31N 44°41' E 020°57'0 0.0
2017-Nov-16 13:00N 44°42' E 020°57'0 0.0
2017-Nov-16 12:30N 44°41' E 020°57'0 0.0
2017-Nov-16 12:00N 44°42' E 020°57'0 0.0
2017-Nov-16 11:30N 44°42' E 020°57'0 0.0
2017-Nov-16 11:00N 44°41' E 020°57'0 0.0
2017-Nov-16 10:31N 44°42' E 020°57'0 0.0
2017-Nov-16 10:00N 44°42' E 020°57'0 0.0
2017-Nov-16 09:30N 44°42' E 020°57'0 0.0
2017-Nov-16 09:00N 44°41' E 020°57'0 0.0
2017-Nov-16 08:30N 44°41' E 020°57'0 0.0
2017-Nov-16 08:00N 44°41' E 020°57'0 0.0
2017-Nov-16 07:30N 44°42' E 020°57'0 0.0
2017-Nov-16 07:00N 44°42' E 020°57'0 0.0
2017-Nov-16 06:30N 44°42' E 020°57'0 0.0
2017-Nov-16 06:00N 44°41' E 020°57'0 0.0
2017-Nov-16 05:30N 44°41' E 020°57'0 0.0
2017-Nov-16 05:00N 44°42' E 020°57'0 0.0
2017-Nov-16 04:31N 44°41' E 020°57'0 0.0
2017-Nov-16 04:00N 44°42' E 020°57'0 0.0
2017-Nov-16 03:30N 44°41' E 020°57'0 0.0
2017-Nov-16 03:00N 44°41' E 020°57'0 0.0
2017-Nov-16 02:30N 44°42' E 020°57'0 0.0
2017-Nov-16 02:00N 44°42' E 020°57'0 0.0
2017-Nov-16 01:30N 44°42' E 020°57'0 0.0
2017-Nov-16 01:00N 44°42' E 020°57'0 0.0
2017-Nov-16 00:30N 44°41' E 020°57'0 0.0
2017-Nov-16 00:00N 44°42' E 020°57'0 0.0
2017-Nov-15 23:30N 44°41' E 020°57'0 0.0
2017-Nov-15 23:00N 44°42' E 020°57'0 0.0
2017-Nov-15 22:30N 44°42' E 020°57'0 0.0
2017-Nov-15 22:00N 44°42' E 020°57'0 0.0
2017-Nov-15 21:30N 44°41' E 020°57'0 0.0
2017-Nov-15 21:01N 44°41' E 020°57'0 0.0
2017-Nov-15 20:31N 44°41' E 020°57'0 0.0
2017-Nov-15 20:01N 44°41' E 020°57'0 0.0
2017-Nov-15 19:31N 44°41' E 020°57'0 0.0
2017-Nov-15 19:00N 44°41' E 020°57'0 0.0
2017-Nov-15 18:31N 44°41' E 020°57'0 0.0
2017-Nov-15 18:00N 44°41' E 020°57'0 0.0
2017-Nov-15 17:30N 44°42' E 020°57'0 0.0
2017-Nov-15 17:01N 44°41' E 020°57'0 0.0
2017-Nov-15 16:31N 44°42' E 020°57'0 0.0
2017-Nov-15 16:01N 44°42' E 020°57'0 0.0
2017-Nov-15 15:31N 44°42' E 020°57'0 0.0
2017-Nov-15 15:01N 44°41' E 020°57'0 0.0
2017-Nov-15 14:31N 44°41' E 020°57'0 0.0
2017-Nov-15 14:01N 44°41' E 020°57'0 0.0
2017-Nov-15 13:31N 44°41' E 020°57'0 0.0
2017-Nov-15 13:01N 44°42' E 020°57'0 0.0
2017-Nov-15 12:30N 44°41' E 020°57'0 0.0
2017-Nov-15 12:01N 44°42' E 020°57'0 0.0
2017-Nov-15 11:30N 44°41' E 020°57'0 0.0
2017-Nov-15 11:00N 44°41' E 020°57'0 0.1
2017-Nov-15 10:30N 44°42' E 020°57'0 0.0
2017-Nov-15 10:00N 44°42' E 020°57'0 0.0
2017-Nov-15 09:30N 44°42' E 020°57'0 0.0
2017-Nov-15 09:00N 44°42' E 020°57'0 0.0
2017-Nov-15 08:30N 44°42' E 020°57'0 0.0
2017-Nov-15 08:00N 44°42' E 020°57'0 0.0
2017-Nov-15 07:30N 44°42' E 020°57'0 0.0
2017-Nov-15 07:00N 44°42' E 020°57'0 0.0
2017-Nov-15 06:30N 44°42' E 020°57'0 0.0
2017-Nov-15 06:00N 44°42' E 020°57'0 0.0
2017-Nov-15 05:30N 44°42' E 020°57'0 0.0
2017-Nov-15 05:00N 44°42' E 020°57'0 0.0
2017-Nov-15 04:30N 44°42' E 020°57'0 0.0
2017-Nov-15 04:00N 44°42' E 020°57'0 0.0
2017-Nov-15 03:30N 44°42' E 020°57'0 0.0
2017-Nov-15 03:00N 44°42' E 020°57'0 0.0
2017-Nov-15 02:30N 44°42' E 020°57'0 0.0
2017-Nov-15 02:00N 44°42' E 020°57'0 0.0
2017-Nov-15 01:30N 44°42' E 020°57'0 0.0
2017-Nov-15 01:00N 44°42' E 020°57'0 0.0
2017-Nov-15 00:30N 44°42' E 020°57'0 0.0
2017-Nov-15 00:01N 44°42' E 020°57'0 0.0
2017-Nov-14 23:31N 44°42' E 020°57'0 0.0
2017-Nov-14 23:01N 44°42' E 020°57'0 0.0
2017-Nov-14 22:31N 44°42' E 020°57'0 0.0
2017-Nov-14 22:00N 44°42' E 020°57'0 0.0
2017-Nov-14 21:31N 44°42' E 020°57'0 0.0
2017-Nov-14 21:00N 44°42' E 020°57'0 0.0
2017-Nov-14 20:31N 44°42' E 020°57'0 0.0
2017-Nov-14 20:00N 44°42' E 020°57'0 0.0
2017-Nov-14 19:30N 44°42' E 020°57'0 0.0
2017-Nov-14 19:00N 44°42' E 020°57'0 0.0
2017-Nov-14 18:30N 44°42' E 020°57'0 0.0
2017-Nov-14 18:00N 44°42' E 020°57'0 0.0
2017-Nov-14 17:30N 44°42' E 020°57'0 0.0
2017-Nov-14 17:00N 44°42' E 020°57'0 0.0
2017-Nov-14 16:30N 44°42' E 020°57'0 0.0
2017-Nov-14 16:00N 44°42' E 020°57'0 0.0
2017-Nov-14 15:30N 44°42' E 020°57'0 0.0
2017-Nov-14 15:00N 44°42' E 020°57'0 0.0
2017-Nov-14 14:30N 44°42' E 020°57'0 0.0
2017-Nov-14 14:00N 44°42' E 020°57'0 0.0
2017-Nov-14 13:30N 44°42' E 020°57'0 0.0
2017-Nov-14 13:00N 44°42' E 020°57'0 0.0
2017-Nov-14 12:30N 44°42' E 020°57'0 0.0
2017-Nov-14 12:01N 44°42' E 020°57'0 0.0
2017-Nov-14 11:31N 44°42' E 020°57'0 0.0
2017-Nov-14 11:01N 44°42' E 020°57'0 0.0
2017-Nov-14 10:31N 44°42' E 020°57'0 0.0
2017-Nov-14 10:01N 44°42' E 020°57'0 0.0
2017-Nov-14 09:30N 44°42' E 020°57'0 0.0
2017-Nov-14 09:00N 44°42' E 020°57'0 0.0
2017-Nov-14 08:30N 44°42' E 020°57'0 0.0
2017-Nov-14 08:00N 44°42' E 020°57'0 0.0
2017-Nov-14 07:30N 44°42' E 020°57'0 0.0
2017-Nov-14 07:00N 44°42' E 020°57'0 0.0
2017-Nov-14 06:30N 44°42' E 020°57'0 0.0
2017-Nov-14 06:00N 44°42' E 020°57'0 0.0
2017-Nov-14 05:30N 44°42' E 020°57'0 0.0
2017-Nov-14 05:00N 44°42' E 020°57'0 0.0
2017-Nov-14 04:30N 44°42' E 020°57'0 0.0
2017-Nov-14 04:00N 44°42' E 020°57'0 0.0
2017-Nov-14 03:30N 44°42' E 020°57'0 0.0
2017-Nov-14 03:00N 44°42' E 020°57'0 0.0
2017-Nov-14 02:30N 44°42' E 020°57'0 0.0
2017-Nov-14 02:00N 44°42' E 020°57'0 0.0
2017-Nov-14 01:30N 44°42' E 020°57'0 0.0
2017-Nov-14 01:00N 44°42' E 020°57'0 0.0
2017-Nov-14 00:31N 44°42' E 020°57'0 0.0
2017-Nov-14 00:00N 44°42' E 020°57'0 0.0
2017-Nov-13 23:30N 44°42' E 020°57'0 0.0
2017-Nov-13 23:00N 44°42' E 020°57'0 0.0
2017-Nov-13 22:30N 44°42' E 020°57'0 0.0
2017-Nov-13 22:00N 44°42' E 020°57'21 1.0
2017-Nov-13 00:41N 44°46' E 021°26'1 6.8
2017-Nov-13 00:30N 44°47' E 021°28'2 4.6
2017-Nov-13 00:00N 44°46' E 021°31'0 0.0
2017-Nov-12 23:31N 44°46' E 021°31'0 0.0
2017-Nov-12 23:00N 44°46' E 021°31'0 0.0
2017-Nov-12 22:30N 44°46' E 021°31'0 0.0
2017-Nov-12 22:00N 44°46' E 021°31'0 0.0
2017-Nov-12 21:31N 44°46' E 021°31'0 0.0
2017-Nov-12 21:00N 44°46' E 021°31'0 0.0
2017-Nov-12 20:30N 44°46' E 021°31'1 2.0
2017-Nov-12 20:01N 44°46' E 021°32'3 6.6
2017-Nov-12 19:30N 44°44' E 021°36'3 6.9
2017-Nov-12 19:00N 44°41' E 021°39'16 6.3
2017-Nov-12 16:27N 44°36' E 022°01'3 7.0
2017-Nov-12 16:01N 44°33' E 022°02'3 7.0
2017-Nov-12 15:30N 44°30' E 022°05'4 7.0
2017-Nov-12 15:00N 44°28' E 022°09'3 6.4
2017-Nov-12 14:30N 44°31' E 022°12'10 7.0
2017-Nov-12 13:05N 44°39' E 022°18'1 6.7
2017-Nov-12 13:00N 44°40' E 022°19'4 7.1
2017-Nov-12 12:28N 44°41' E 022°24'3 6.8
2017-Nov-12 12:01N 44°43' E 022°27'4 7.2
2017-Nov-12 11:30N 44°40' E 022°31'0 0.5
2017-Nov-12 11:01N 44°40' E 022°31'0 0.3
2017-Nov-12 10:31N 44°40' E 022°32'0 0.0
2017-Nov-12 09:55N 44°40' E 022°32'2 4.8
2017-Nov-12 09:31N 44°39' E 022°34'3 6.9
2017-Nov-12 09:00N 44°37' E 022°38'1 2.1
2017-Nov-12 08:30N 44°37' E 022°39'0 0.0
2017-Nov-12 08:00N 44°37' E 022°39'0 0.0
2017-Nov-12 07:30N 44°37' E 022°39'0 0.0
2017-Nov-12 07:01N 44°37' E 022°39'0 0.0
2017-Nov-12 06:30N 44°37' E 022°39'0 0.0
2017-Nov-12 06:00N 44°37' E 022°39'2 3.4
2017-Nov-12 05:30N 44°37' E 022°42'3 6.9
2017-Nov-12 05:00N 44°34' E 022°45'3 5.3
2017-Nov-12 04:30N 44°32' E 022°44'3 6.1
2017-Nov-12 04:00N 44°32' E 022°40'3 6.6
2017-Nov-12 03:31N 44°33' E 022°35'3 6.4
2017-Nov-12 03:00N 44°30' E 022°33'3 5.9
2017-Nov-12 02:30N 44°29' E 022°30'2 4.4
2017-Nov-12 02:00N 44°27' E 022°28'3 6.4
2017-Nov-12 01:30N 44°24' E 022°30'3 6.7
2017-Nov-12 01:00N 44°21' E 022°31'3 6.7
2017-Nov-12 00:30N 44°18' E 022°34'0 0.3
2017-Nov-12 00:00N 44°18' E 022°34'2 4.1
2017-Nov-11 23:30N 44°18' E 022°37'3 5.6
2017-Nov-11 23:00N 44°17' E 022°41'3 5.2
2017-Nov-11 22:30N 44°14' E 022°41'2 4.5
2017-Nov-11 22:00N 44°12' E 022°42'3 5.5
2017-Nov-11 21:30N 44°11' E 022°46'3 5.8
2017-Nov-11 21:00N 44°09' E 022°49'3 5.6
2017-Nov-11 20:30N 44°08' E 022°52'3 5.5
2017-Nov-11 20:00N 44°06' E 022°55'3 5.6
2017-Nov-11 19:30N 44°06' E 022°59'3 5.7
2017-Nov-11 19:00N 44°05' E 023°02'2 5.0
2017-Nov-11 18:30N 44°02' E 023°02'3 5.1
2017-Nov-11 18:00N 44°00' E 022°59'3 5.8
2017-Nov-11 17:30N 43°60' E 022°55'3 5.3
2017-Nov-11 17:01N 43°58' E 022°52'3 6.0
2017-Nov-11 16:30N 43°55' E 022°52'3 5.7
2017-Nov-11 16:00N 43°53' E 022°50'3 5.6
2017-Nov-11 15:30N 43°50' E 022°52'4 6.1
2017-Nov-11 14:55N 43°49' E 022°57'2 5.7
2017-Nov-11 14:30N 43°48' E 023°00'3 5.3
2017-Nov-11 14:00N 43°48' E 023°04'3 5.6
2017-Nov-11 13:30N 43°48' E 023°08'3 5.4
2017-Nov-11 13:00N 43°49' E 023°11'3 5.7
2017-Nov-11 12:28N 43°51' E 023°15'3 5.8
2017-Nov-11 12:00N 43°51' E 023°19'3 6.1
2017-Nov-11 11:29N 43°51' E 023°23'5 5.6
2017-Nov-11 10:40N 43°50' E 023°29'1 5.6
2017-Nov-11 10:29N 43°50' E 023°31'3 5.7
2017-Nov-11 09:57N 43°48' E 023°34'196 3.9
2017-Nov-09 07:33N 44°17' E 028°04'0 6.0
2017-Nov-09 07:30N 44°17' E 028°04'3 5.8
2017-Nov-09 07:00N 44°16' E 028°08'3 6.7
2017-Nov-09 06:30N 44°16' E 028°13'3 6.7
2017-Nov-09 06:00N 44°15' E 028°17'3 6.3
2017-Nov-09 05:30N 44°14' E 028°22'3 5.1
2017-Nov-09 04:59N 44°14' E 028°25'3 5.8
2017-Nov-09 04:29N 44°15' E 028°28'3 5.8
2017-Nov-09 04:00N 44°16' E 028°32'0 0.9
2017-Nov-09 03:30N 44°16' E 028°32'0 0.0
2017-Nov-09 03:00N 44°16' E 028°32'0 0.0
2017-Nov-09 02:30N 44°16' E 028°32'0 0.0
2017-Nov-09 02:00N 44°16' E 028°32'0 0.0
2017-Nov-09 01:30N 44°16' E 028°32'0 0.0
2017-Nov-09 01:00N 44°16' E 028°32'0 0.0
2017-Nov-09 00:30N 44°16' E 028°32'0 0.0
2017-Nov-09 00:00N 44°16' E 028°32'0 0.0
2017-Nov-08 23:30N 44°16' E 028°32'0 0.0
2017-Nov-08 23:00N 44°16' E 028°32'0 0.0
2017-Nov-08 22:30N 44°16' E 028°32'0 0.0
2017-Nov-08 22:00N 44°16' E 028°32'0 0.0
2017-Nov-08 21:30N 44°16' E 028°32'0 0.0
2017-Nov-08 21:00N 44°16' E 028°32'0 0.0
2017-Nov-08 20:30N 44°16' E 028°32'0 0.0
2017-Nov-08 20:00N 44°16' E 028°32'0 0.0
2017-Nov-08 19:30N 44°16' E 028°32'0 0.0
2017-Nov-08 19:00N 44°16' E 028°32'0 0.0
2017-Nov-08 18:30N 44°16' E 028°32'0 0.0
2017-Nov-08 18:00N 44°16' E 028°32'0 0.0
2017-Nov-08 17:30N 44°16' E 028°32'0 0.0
2017-Nov-08 17:00N 44°16' E 028°32'0 0.1
2017-Nov-08 16:30N 44°16' E 028°33'0 0.0
2017-Nov-08 16:00N 44°16' E 028°33'0 0.0
2017-Nov-08 15:30N 44°16' E 028°33'0 0.0
2017-Nov-08 15:00N 44°16' E 028°33'0 0.0
2017-Nov-08 14:30N 44°16' E 028°33'0 0.0
2017-Nov-08 14:00N 44°16' E 028°33'0 0.0
2017-Nov-08 13:30N 44°16' E 028°33'0 0.3
2017-Nov-08 13:00N 44°16' E 028°33'2 3.1
2017-Nov-08 12:30N 44°16' E 028°35'3 5.5
2017-Nov-08 12:00N 44°18' E 028°37'1 1.9
2017-Nov-08 11:30N 44°19' E 028°38'0 0.3
2017-Nov-08 11:00N 44°19' E 028°38'1 2.8
2017-Nov-08 10:30N 44°20' E 028°40'1 1.0
2017-Nov-08 10:00N 44°20' E 028°40'0 0.0
2017-Nov-08 09:30N 44°20' E 028°40'0 0.0
2017-Nov-08 09:00N 44°20' E 028°40'0 0.0
2017-Nov-08 08:30N 44°20' E 028°40'0 0.0
2017-Nov-08 08:00N 44°20' E 028°40'0 0.0
2017-Nov-08 07:30N 44°20' E 028°40'0 0.0
2017-Nov-08 07:00N 44°20' E 028°40'0 0.0
2017-Nov-08 06:30N 44°20' E 028°40'0 0.0
2017-Nov-08 06:00N 44°20' E 028°40'0 0.0
2017-Nov-08 05:30N 44°20' E 028°40'0 0.0
2017-Nov-08 05:00N 44°20' E 028°40'0 0.0
2017-Nov-08 04:30N 44°20' E 028°40'0 0.0
2017-Nov-08 04:00N 44°20' E 028°40'0 0.0
2017-Nov-08 03:30N 44°20' E 028°40'0 0.0
2017-Nov-08 03:00N 44°20' E 028°40'0 0.0
2017-Nov-08 02:30N 44°20' E 028°40'0 0.0
2017-Nov-08 02:00N 44°20' E 028°40'0 0.0
2017-Nov-08 01:30N 44°20' E 028°40'0 0.0
2017-Nov-08 01:00N 44°20' E 028°40'0 0.0
2017-Nov-08 00:30N 44°20' E 028°40'0 0.0
2017-Nov-08 00:00N 44°20' E 028°40'0 0.0
2017-Nov-07 23:30N 44°20' E 028°40'0 0.0
2017-Nov-07 23:00N 44°20' E 028°40'0 0.0
2017-Nov-07 22:30N 44°20' E 028°40'0 0.0
2017-Nov-07 22:00N 44°20' E 028°40'0 0.0
2017-Nov-07 21:30N 44°20' E 028°40'0 0.0
2017-Nov-07 21:00N 44°20' E 028°40'0 0.0
2017-Nov-07 20:30N 44°20' E 028°40'0 0.0
2017-Nov-07 20:00N 44°20' E 028°40'0 0.0
2017-Nov-07 19:30N 44°20' E 028°40'0 0.0
2017-Nov-07 19:00N 44°20' E 028°40'0 0.0
2017-Nov-07 18:30N 44°20' E 028°40'0 0.0
2017-Nov-07 18:00N 44°20' E 028°40'0 0.0
2017-Nov-07 17:30N 44°20' E 028°40'0 0.0
2017-Nov-07 17:00N 44°20' E 028°40'0 0.0
2017-Nov-07 16:30N 44°20' E 028°40'  

Dump ship's entire track history